sensor_id;sensor_type;location;lat;lon;timestamp;P1;durP1;ratioP1;P2;durP2;ratioP2
15295;SDS011;7749;49.964;7.890;2022-09-09T00:00:13;3.73;;;1.30;;
15295;SDS011;7749;49.964;7.890;2022-09-09T00:11:52;3.60;;;1.20;;
15295;SDS011;7749;49.964;7.890;2022-09-09T00:14:53;2.60;;;1.13;;
15295;SDS011;7749;49.964;7.890;2022-09-09T00:17:58;2.60;;;1.17;;
15295;SDS011;7749;49.964;7.890;2022-09-09T00:23:18;3.00;;;1.10;;
15295;SDS011;7749;49.964;7.890;2022-09-09T00:31:47;2.73;;;1.43;;
15295;SDS011;7749;49.964;7.890;2022-09-09T00:41:19;2.50;;;1.20;;
15295;SDS011;7749;49.964;7.890;2022-09-09T00:44:04;3.10;;;1.43;;
15295;SDS011;7749;49.964;7.890;2022-09-09T00:47:03;3.30;;;1.33;;
15295;SDS011;7749;49.964;7.890;2022-09-09T00:53:19;3.53;;;1.50;;
15295;SDS011;7749;49.964;7.890;2022-09-09T00:56:13;5.03;;;1.40;;
15295;SDS011;7749;49.964;7.890;2022-09-09T00:59:21;4.57;;;1.37;;
15295;SDS011;7749;49.964;7.890;2022-09-09T01:01:59;4.37;;;1.40;;
15295;SDS011;7749;49.964;7.890;2022-09-09T01:04:37;4.47;;;1.30;;
15295;SDS011;7749;49.964;7.890;2022-09-09T01:07:32;3.33;;;1.40;;
15295;SDS011;7749;49.964;7.890;2022-09-09T01:10:11;4.10;;;1.60;;
15295;SDS011;7749;49.964;7.890;2022-09-09T01:13:00;2.50;;;1.43;;
15295;SDS011;7749;49.964;7.890;2022-09-09T01:15:35;3.77;;;1.37;;
15295;SDS011;7749;49.964;7.890;2022-09-09T01:18:05;3.20;;;1.70;;
15295;SDS011;7749;49.964;7.890;2022-09-09T01:26:50;2.93;;;1.30;;
15295;SDS011;7749;49.964;7.890;2022-09-09T01:29:36;3.37;;;1.80;;
15295;SDS011;7749;49.964;7.890;2022-09-09T01:35:36;2.37;;;1.30;;
15295;SDS011;7749;49.964;7.890;2022-09-09T01:38:22;3.30;;;1.33;;
15295;SDS011;7749;49.964;7.890;2022-09-09T01:41:18;2.57;;;1.53;;
15295;SDS011;7749;49.964;7.890;2022-09-09T01:44:07;2.87;;;1.10;;
15295;SDS011;7749;49.964;7.890;2022-09-09T01:46:52;1.80;;;1.20;;
15295;SDS011;7749;49.964;7.890;2022-09-09T01:49:30;2.07;;;1.20;;
15295;SDS011;7749;49.964;7.890;2022-09-09T01:52:17;3.67;;;1.47;;
15295;SDS011;7749;49.964;7.890;2022-09-09T01:54:56;3.73;;;1.30;;
15295;SDS011;7749;49.964;7.890;2022-09-09T01:57:42;3.80;;;1.40;;
15295;SDS011;7749;49.964;7.890;2022-09-09T02:00:23;2.73;;;1.30;;
15295;SDS011;7749;49.964;7.890;2022-09-09T02:03:07;3.03;;;1.30;;
15295;SDS011;7749;49.964;7.890;2022-09-09T02:05:55;3.90;;;1.57;;
15295;SDS011;7749;49.964;7.890;2022-09-09T02:08:47;3.17;;;1.20;;
15295;SDS011;7749;49.964;7.890;2022-09-09T02:11:38;3.07;;;1.20;;
15295;SDS011;7749;49.964;7.890;2022-09-09T02:14:10;2.37;;;1.20;;
15295;SDS011;7749;49.964;7.890;2022-09-09T02:16:44;4.30;;;1.33;;
15295;SDS011;7749;49.964;7.890;2022-09-09T02:19:21;6.50;;;1.40;;
15295;SDS011;7749;49.964;7.890;2022-09-09T02:21:54;4.00;;;1.23;;
15295;SDS011;7749;49.964;7.890;2022-09-09T02:24:24;1.90;;;1.30;;
15295;SDS011;7749;49.964;7.890;2022-09-09T02:26:54;3.13;;;1.33;;
15295;SDS011;7749;49.964;7.890;2022-09-09T02:29:25;2.63;;;1.20;;
15295;SDS011;7749;49.964;7.890;2022-09-09T02:31:59;3.80;;;1.30;;
15295;SDS011;7749;49.964;7.890;2022-09-09T02:34:33;2.77;;;1.07;;
15295;SDS011;7749;49.964;7.890;2022-09-09T02:37:06;2.60;;;1.20;;
15295;SDS011;7749;49.964;7.890;2022-09-09T02:39:35;2.47;;;1.23;;
15295;SDS011;7749;49.964;7.890;2022-09-09T02:42:05;2.53;;;1.30;;
15295;SDS011;7749;49.964;7.890;2022-09-09T02:47:36;4.47;;;1.30;;
15295;SDS011;7749;49.964;7.890;2022-09-09T02:50:27;6.37;;;1.40;;
15295;SDS011;7749;49.964;7.890;2022-09-09T02:53:13;4.67;;;1.10;;
15295;SDS011;7749;49.964;7.890;2022-09-09T02:55:54;3.60;;;1.37;;
15295;SDS011;7749;49.964;7.890;2022-09-09T02:58:27;4.43;;;1.40;;
15295;SDS011;7749;49.964;7.890;2022-09-09T03:01:12;4.33;;;1.40;;
15295;SDS011;7749;49.964;7.890;2022-09-09T03:03:48;4.53;;;1.57;;
15295;SDS011;7749;49.964;7.890;2022-09-09T03:06:25;5.43;;;1.50;;
15295;SDS011;7749;49.964;7.890;2022-09-09T03:09:02;4.33;;;1.60;;
15295;SDS011;7749;49.964;7.890;2022-09-09T03:11:30;3.43;;;1.50;;
15295;SDS011;7749;49.964;7.890;2022-09-09T03:14:02;6.07;;;1.87;;
15295;SDS011;7749;49.964;7.890;2022-09-09T03:16:32;3.07;;;1.40;;
15295;SDS011;7749;49.964;7.890;2022-09-09T03:19:01;4.20;;;1.67;;
15295;SDS011;7749;49.964;7.890;2022-09-09T03:21:32;2.13;;;1.20;;
15295;SDS011;7749;49.964;7.890;2022-09-09T03:24:19;3.87;;;1.50;;
15295;SDS011;7749;49.964;7.890;2022-09-09T03:26:53;3.50;;;1.40;;
15295;SDS011;7749;49.964;7.890;2022-09-09T03:29:49;5.03;;;1.63;;
15295;SDS011;7749;49.964;7.890;2022-09-09T03:32:21;4.53;;;1.67;;
15295;SDS011;7749;49.964;7.890;2022-09-09T03:35:08;3.63;;;1.53;;
15295;SDS011;7749;49.964;7.890;2022-09-09T03:37:58;3.60;;;1.40;;
15295;SDS011;7749;49.964;7.890;2022-09-09T03:41:11;4.20;;;2.20;;
15295;SDS011;7749;49.964;7.890;2022-09-09T03:43:59;4.23;;;1.87;;
15295;SDS011;7749;49.964;7.890;2022-09-09T03:46:39;2.77;;;1.37;;
15295;SDS011;7749;49.964;7.890;2022-09-09T03:49:07;2.17;;;1.30;;
15295;SDS011;7749;49.964;7.890;2022-09-09T03:51:49;3.27;;;1.40;;
15295;SDS011;7749;49.964;7.890;2022-09-09T03:54:20;2.83;;;1.60;;
15295;SDS011;7749;49.964;7.890;2022-09-09T03:56:54;2.47;;;1.40;;
15295;SDS011;7749;49.964;7.890;2022-09-09T03:59:22;4.37;;;1.70;;
15295;SDS011;7749;49.964;7.890;2022-09-09T04:01:50;4.50;;;1.30;;
15295;SDS011;7749;49.964;7.890;2022-09-09T04:04:18;3.50;;;1.30;;
15295;SDS011;7749;49.964;7.890;2022-09-09T04:06:47;6.60;;;1.33;;
15295;SDS011;7749;49.964;7.890;2022-09-09T04:09:15;5.37;;;1.47;;
15295;SDS011;7749;49.964;7.890;2022-09-09T04:11:42;3.10;;;1.50;;
15295;SDS011;7749;49.964;7.890;2022-09-09T04:14:16;4.57;;;1.73;;
15295;SDS011;7749;49.964;7.890;2022-09-09T04:17:20;4.63;;;1.50;;
15295;SDS011;7749;49.964;7.890;2022-09-09T04:24:41;4.13;;;1.93;;
15295;SDS011;7749;49.964;7.890;2022-09-09T04:27:35;2.90;;;1.50;;
15295;SDS011;7749;49.964;7.890;2022-09-09T04:30:19;4.77;;;1.57;;
15295;SDS011;7749;49.964;7.890;2022-09-09T04:33:00;4.13;;;1.67;;
15295;SDS011;7749;49.964;7.890;2022-09-09T04:36:23;4.57;;;1.90;;
15295;SDS011;7749;49.964;7.890;2022-09-09T04:39:08;4.77;;;1.80;;
15295;SDS011;7749;49.964;7.890;2022-09-09T04:41:53;6.50;;;1.90;;
15295;SDS011;7749;49.964;7.890;2022-09-09T04:44:41;5.27;;;2.00;;
15295;SDS011;7749;49.964;7.890;2022-09-09T04:47:39;2.97;;;1.40;;
15295;SDS011;7749;49.964;7.890;2022-09-09T04:54:11;6.83;;;2.47;;
15295;SDS011;7749;49.964;7.890;2022-09-09T04:56:57;5.20;;;1.77;;
15295;SDS011;7749;49.964;7.890;2022-09-09T04:59:48;3.63;;;1.50;;
15295;SDS011;7749;49.964;7.890;2022-09-09T05:02:39;5.37;;;1.87;;
15295;SDS011;7749;49.964;7.890;2022-09-09T05:06:10;3.37;;;1.50;;
15295;SDS011;7749;49.964;7.890;2022-09-09T05:09:24;3.80;;;1.50;;
15295;SDS011;7749;49.964;7.890;2022-09-09T05:12:05;5.87;;;1.80;;
15295;SDS011;7749;49.964;7.890;2022-09-09T05:15:30;3.53;;;1.43;;
15295;SDS011;7749;49.964;7.890;2022-09-09T05:18:07;5.83;;;1.57;;
15295;SDS011;7749;49.964;7.890;2022-09-09T05:20:58;5.43;;;2.10;;
15295;SDS011;7749;49.964;7.890;2022-09-09T05:27:45;3.23;;;1.60;;
15295;SDS011;7749;49.964;7.890;2022-09-09T05:30:46;3.10;;;1.77;;
15295;SDS011;7749;49.964;7.890;2022-09-09T05:48:31;2.40;;;1.53;;
15295;SDS011;7749;49.964;7.890;2022-09-09T05:51:05;2.70;;;1.63;;
15295;SDS011;7749;49.964;7.890;2022-09-09T05:53:42;3.73;;;1.90;;
15295;SDS011;7749;49.964;7.890;2022-09-09T05:56:36;3.70;;;1.57;;
15295;SDS011;7749;49.964;7.890;2022-09-09T05:59:22;4.47;;;2.10;;
15295;SDS011;7749;49.964;7.890;2022-09-09T06:02:32;3.60;;;1.30;;
15295;SDS011;7749;49.964;7.890;2022-09-09T06:05:12;3.27;;;1.27;;
15295;SDS011;7749;49.964;7.890;2022-09-09T06:08:23;4.47;;;1.40;;
15295;SDS011;7749;49.964;7.890;2022-09-09T06:11:12;3.47;;;1.30;;
15295;SDS011;7749;49.964;7.890;2022-09-09T06:14:18;5.97;;;1.60;;
15295;SDS011;7749;49.964;7.890;2022-09-09T06:17:00;3.33;;;1.40;;
15295;SDS011;7749;49.964;7.890;2022-09-09T06:19:50;5.13;;;2.00;;
15295;SDS011;7749;49.964;7.890;2022-09-09T06:22:29;2.83;;;1.50;;
15295;SDS011;7749;49.964;7.890;2022-09-09T06:25:31;3.53;;;1.57;;
15295;SDS011;7749;49.964;7.890;2022-09-09T06:28:09;5.07;;;1.93;;
15295;SDS011;7749;49.964;7.890;2022-09-09T06:31:29;4.43;;;1.60;;
15295;SDS011;7749;49.964;7.890;2022-09-09T06:34:58;4.53;;;1.70;;
15295;SDS011;7749;49.964;7.890;2022-09-09T06:38:20;4.90;;;2.10;;
15295;SDS011;7749;49.964;7.890;2022-09-09T06:41:07;4.20;;;1.80;;
15295;SDS011;7749;49.964;7.890;2022-09-09T06:43:45;3.57;;;1.40;;
15295;SDS011;7749;49.964;7.890;2022-09-09T06:46:39;3.90;;;1.60;;
15295;SDS011;7749;49.964;7.890;2022-09-09T06:49:27;2.40;;;1.50;;
15295;SDS011;7749;49.964;7.890;2022-09-09T06:52:05;4.10;;;1.60;;
15295;SDS011;7749;49.964;7.890;2022-09-09T06:54:51;4.30;;;1.63;;
15295;SDS011;7749;49.964;7.890;2022-09-09T06:57:40;3.57;;;1.87;;
15295;SDS011;7749;49.964;7.890;2022-09-09T07:00:10;4.37;;;1.67;;
15295;SDS011;7749;49.964;7.890;2022-09-09T07:02:39;5.50;;;1.70;;
15295;SDS011;7749;49.964;7.890;2022-09-09T07:05:08;5.15;;;1.90;;
15295;SDS011;7749;49.964;7.890;2022-09-09T07:07:36;3.58;;;1.50;;
15295;SDS011;7749;49.964;7.890;2022-09-09T07:10:04;5.13;;;1.80;;
15295;SDS011;7749;49.964;7.890;2022-09-09T07:12:32;3.97;;;1.70;;
15295;SDS011;7749;49.964;7.890;2022-09-09T07:14:59;4.60;;;1.70;;
15295;SDS011;7749;49.964;7.890;2022-09-09T07:17:27;8.30;;;2.23;;
15295;SDS011;7749;49.964;7.890;2022-09-09T07:19:56;5.03;;;2.08;;
15295;SDS011;7749;49.964;7.890;2022-09-09T07:22:24;3.88;;;1.70;;
15295;SDS011;7749;49.964;7.890;2022-09-09T07:24:52;3.92;;;1.77;;
15295;SDS011;7749;49.964;7.890;2022-09-09T07:27:20;5.82;;;1.85;;
15295;SDS011;7749;49.964;7.890;2022-09-09T07:29:48;7.55;;;2.17;;
15295;SDS011;7749;49.964;7.890;2022-09-09T07:32:16;5.68;;;1.90;;
15295;SDS011;7749;49.964;7.890;2022-09-09T07:34:45;4.22;;;2.00;;
15295;SDS011;7749;49.964;7.890;2022-09-09T07:37:14;8.05;;;2.15;;
15295;SDS011;7749;49.964;7.890;2022-09-09T07:39:42;4.55;;;1.95;;
15295;SDS011;7749;49.964;7.890;2022-09-09T07:42:10;5.30;;;2.17;;
15295;SDS011;7749;49.964;7.890;2022-09-09T07:44:38;4.93;;;2.10;;
15295;SDS011;7749;49.964;7.890;2022-09-09T07:47:06;3.55;;;2.08;;
15295;SDS011;7749;49.964;7.890;2022-09-09T07:49:34;5.25;;;2.10;;
15295;SDS011;7749;49.964;7.890;2022-09-09T07:52:02;4.75;;;2.33;;
15295;SDS011;7749;49.964;7.890;2022-09-09T07:54:30;7.43;;;2.55;;
15295;SDS011;7749;49.964;7.890;2022-09-09T07:56:59;3.80;;;2.20;;
15295;SDS011;7749;49.964;7.890;2022-09-09T07:59:27;3.97;;;2.60;;
15295;SDS011;7749;49.964;7.890;2022-09-09T08:01:58;4.93;;;2.10;;
15295;SDS011;7749;49.964;7.890;2022-09-09T08:04:26;5.93;;;2.15;;
15295;SDS011;7749;49.964;7.890;2022-09-09T08:06:56;5.00;;;2.47;;
15295;SDS011;7749;49.964;7.890;2022-09-09T08:09:26;7.43;;;2.40;;
15295;SDS011;7749;49.964;7.890;2022-09-09T08:11:56;6.43;;;2.40;;
15295;SDS011;7749;49.964;7.890;2022-09-09T08:14:25;6.32;;;2.78;;
15295;SDS011;7749;49.964;7.890;2022-09-09T08:16:53;8.35;;;2.25;;
15295;SDS011;7749;49.964;7.890;2022-09-09T08:19:21;4.85;;;2.58;;
15295;SDS011;7749;49.964;7.890;2022-09-09T08:21:50;3.15;;;2.05;;
15295;SDS011;7749;49.964;7.890;2022-09-09T08:24:19;6.30;;;2.42;;
15295;SDS011;7749;49.964;7.890;2022-09-09T08:26:47;5.95;;;2.42;;
15295;SDS011;7749;49.964;7.890;2022-09-09T08:29:16;5.40;;;1.85;;
15295;SDS011;7749;49.964;7.890;2022-09-09T08:31:47;8.07;;;2.00;;
15295;SDS011;7749;49.964;7.890;2022-09-09T08:34:18;6.40;;;2.00;;
15295;SDS011;7749;49.964;7.890;2022-09-09T08:36:47;5.47;;;1.67;;
15295;SDS011;7749;49.964;7.890;2022-09-09T08:39:17;3.53;;;1.60;;
15295;SDS011;7749;49.964;7.890;2022-09-09T08:44:40;7.03;;;1.97;;
15295;SDS011;7749;49.964;7.890;2022-09-09T08:50:36;4.50;;;1.60;;
15295;SDS011;7749;49.964;7.890;2022-09-09T08:53:29;4.95;;;1.60;;
15295;SDS011;7749;49.964;7.890;2022-09-09T08:56:36;7.18;;;2.15;;
15295;SDS011;7749;49.964;7.890;2022-09-09T08:59:20;4.32;;;1.70;;
15295;SDS011;7749;49.964;7.890;2022-09-09T09:08:08;7.03;;;2.20;;
15295;SDS011;7749;49.964;7.890;2022-09-09T09:10:51;5.68;;;1.88;;
15295;SDS011;7749;49.964;7.890;2022-09-09T09:13:38;4.03;;;2.03;;
15295;SDS011;7749;49.964;7.890;2022-09-09T09:16:30;4.55;;;1.50;;
15295;SDS011;7749;49.964;7.890;2022-09-09T09:19:27;8.25;;;2.28;;
15295;SDS011;7749;49.964;7.890;2022-09-09T09:25:03;5.05;;;1.90;;
15295;SDS011;7749;49.964;7.890;2022-09-09T09:28:15;4.68;;;1.70;;
15295;SDS011;7749;49.964;7.890;2022-09-09T09:31:08;7.13;;;1.90;;
15295;SDS011;7749;49.964;7.890;2022-09-09T09:34:02;2.75;;;1.77;;
15295;SDS011;7749;49.964;7.890;2022-09-09T09:37:12;6.43;;;1.65;;
15295;SDS011;7749;49.964;7.890;2022-09-09T09:43:15;6.60;;;1.83;;
15295;SDS011;7749;49.964;7.890;2022-09-09T09:46:03;3.65;;;1.60;;
15295;SDS011;7749;49.964;7.890;2022-09-09T09:49:09;3.05;;;1.83;;
15295;SDS011;7749;49.964;7.890;2022-09-09T09:51:46;4.47;;;1.60;;
15295;SDS011;7749;49.964;7.890;2022-09-09T09:54:41;4.20;;;1.80;;
15295;SDS011;7749;49.964;7.890;2022-09-09T09:57:51;2.72;;;1.52;;
15295;SDS011;7749;49.964;7.890;2022-09-09T10:00:37;4.47;;;2.20;;
15295;SDS011;7749;49.964;7.890;2022-09-09T10:03:49;3.45;;;1.73;;
15295;SDS011;7749;49.964;7.890;2022-09-09T10:07:20;4.32;;;1.85;;
15295;SDS011;7749;49.964;7.890;2022-09-09T10:10:00;4.50;;;1.45;;
15295;SDS011;7749;49.964;7.890;2022-09-09T10:12:54;3.58;;;1.40;;
15295;SDS011;7749;49.964;7.890;2022-09-09T10:16:09;4.53;;;1.48;;
15295;SDS011;7749;49.964;7.890;2022-09-09T10:22:52;4.28;;;1.55;;
15295;SDS011;7749;49.964;7.890;2022-09-09T10:42:33;2.97;;;1.40;;
15295;SDS011;7749;49.964;7.890;2022-09-09T10:45:40;3.00;;;1.30;;
15295;SDS011;7749;49.964;7.890;2022-09-09T10:55:53;4.75;;;1.40;;
15295;SDS011;7749;49.964;7.890;2022-09-09T10:59:11;4.10;;;1.35;;
15295;SDS011;7749;49.964;7.890;2022-09-09T11:02:31;4.85;;;1.20;;
15295;SDS011;7749;49.964;7.890;2022-09-09T11:05:39;6.35;;;1.48;;
15295;SDS011;7749;49.964;7.890;2022-09-09T11:08:12;3.40;;;1.10;;
15295;SDS011;7749;49.964;7.890;2022-09-09T11:13:22;5.85;;;1.50;;
15295;SDS011;7749;49.964;7.890;2022-09-09T11:18:49;3.88;;;1.20;;
15295;SDS011;7749;49.964;7.890;2022-09-09T11:21:37;2.70;;;0.88;;
15295;SDS011;7749;49.964;7.890;2022-09-09T11:24:14;2.83;;;1.20;;
15295;SDS011;7749;49.964;7.890;2022-09-09T11:40:58;4.43;;;1.23;;
15295;SDS011;7749;49.964;7.890;2022-09-09T11:43:47;3.83;;;1.08;;
15295;SDS011;7749;49.964;7.890;2022-09-09T11:46:19;3.58;;;1.10;;
15295;SDS011;7749;49.964;7.890;2022-09-09T11:49:00;4.43;;;1.23;;
15295;SDS011;7749;49.964;7.890;2022-09-09T11:51:33;2.67;;;1.02;;
15295;SDS011;7749;49.964;7.890;2022-09-09T11:57:02;3.33;;;1.17;;
15295;SDS011;7749;49.964;7.890;2022-09-09T11:59:32;7.68;;;1.42;;
15295;SDS011;7749;49.964;7.890;2022-09-09T12:02:14;4.07;;;1.08;;
15295;SDS011;7749;49.964;7.890;2022-09-09T12:15:55;1.90;;;0.77;;
15295;SDS011;7749;49.964;7.890;2022-09-09T12:18:26;2.70;;;1.02;;
15295;SDS011;7749;49.964;7.890;2022-09-09T12:23:50;2.63;;;0.85;;
15295;SDS011;7749;49.964;7.890;2022-09-09T12:27:05;1.65;;;0.60;;
15295;SDS011;7749;49.964;7.890;2022-09-09T12:29:41;1.27;;;0.65;;
15295;SDS011;7749;49.964;7.890;2022-09-09T12:32:26;1.95;;;0.80;;
15295;SDS011;7749;49.964;7.890;2022-09-09T12:37:58;2.70;;;0.98;;
15295;SDS011;7749;49.964;7.890;2022-09-09T12:40:32;2.75;;;0.80;;
15295;SDS011;7749;49.964;7.890;2022-09-09T12:43:19;3.33;;;1.40;;
15295;SDS011;7749;49.964;7.890;2022-09-09T12:45:49;1.75;;;1.02;;
15295;SDS011;7749;49.964;7.890;2022-09-09T12:48:32;1.85;;;0.80;;
15295;SDS011;7749;49.964;7.890;2022-09-09T12:56:26;1.85;;;0.85;;
15295;SDS011;7749;49.964;7.890;2022-09-09T12:58:57;1.85;;;0.93;;
15295;SDS011;7749;49.964;7.890;2022-09-09T13:03:59;3.97;;;1.10;;
15295;SDS011;7749;49.964;7.890;2022-09-09T13:06:28;2.05;;;0.63;;
15295;SDS011;7749;49.964;7.890;2022-09-09T13:08:58;5.65;;;1.10;;
15295;SDS011;7749;49.964;7.890;2022-09-09T13:11:48;2.35;;;0.90;;
15295;SDS011;7749;49.964;7.890;2022-09-09T13:14:22;1.92;;;0.70;;
15295;SDS011;7749;49.964;7.890;2022-09-09T13:17:00;2.28;;;0.65;;
15295;SDS011;7749;49.964;7.890;2022-09-09T13:19:36;3.42;;;1.23;;
15295;SDS011;7749;49.964;7.890;2022-09-09T13:24:42;3.35;;;0.90;;
15295;SDS011;7749;49.964;7.890;2022-09-09T13:30:25;3.70;;;1.30;;
15295;SDS011;7749;49.964;7.890;2022-09-09T13:35:34;5.63;;;1.23;;
15295;SDS011;7749;49.964;7.890;2022-09-09T13:38:14;4.68;;;1.00;;
15295;SDS011;7749;49.964;7.890;2022-09-09T13:43:24;4.07;;;1.13;;
15295;SDS011;7749;49.964;7.890;2022-09-09T13:45:55;3.10;;;1.10;;
15295;SDS011;7749;49.964;7.890;2022-09-09T13:48:29;4.15;;;1.40;;
15295;SDS011;7749;49.964;7.890;2022-09-09T13:51:00;5.13;;;1.13;;
15295;SDS011;7749;49.964;7.890;2022-09-09T13:53:32;3.30;;;0.80;;
15295;SDS011;7749;49.964;7.890;2022-09-09T13:56:01;3.55;;;1.08;;
15295;SDS011;7749;49.964;7.890;2022-09-09T13:58:29;3.38;;;1.15;;
15295;SDS011;7749;49.964;7.890;2022-09-09T14:00:57;3.40;;;0.80;;
15295;SDS011;7749;49.964;7.890;2022-09-09T14:03:26;3.00;;;0.85;;
15295;SDS011;7749;49.964;7.890;2022-09-09T14:05:54;2.10;;;0.80;;
15295;SDS011;7749;49.964;7.890;2022-09-09T14:08:25;4.43;;;1.40;;
15295;SDS011;7749;49.964;7.890;2022-09-09T14:10:54;3.42;;;0.88;;
15295;SDS011;7749;49.964;7.890;2022-09-09T14:13:23;3.10;;;0.95;;
15295;SDS011;7749;49.964;7.890;2022-09-09T14:15:51;2.50;;;0.88;;
15295;SDS011;7749;49.964;7.890;2022-09-09T14:18:19;2.55;;;0.90;;
15295;SDS011;7749;49.964;7.890;2022-09-09T14:20:49;1.90;;;1.00;;
15295;SDS011;7749;49.964;7.890;2022-09-09T14:23:20;3.63;;;1.27;;
15295;SDS011;7749;49.964;7.890;2022-09-09T14:25:48;2.53;;;1.00;;
15295;SDS011;7749;49.964;7.890;2022-09-09T14:28:16;1.27;;;0.80;;
15295;SDS011;7749;49.964;7.890;2022-09-09T14:30:52;1.80;;;0.70;;
15295;SDS011;7749;49.964;7.890;2022-09-09T14:33:19;1.52;;;0.70;;
15295;SDS011;7749;49.964;7.890;2022-09-09T14:35:49;0.95;;;0.68;;
15295;SDS011;7749;49.964;7.890;2022-09-09T14:38:28;1.05;;;0.60;;
15295;SDS011;7749;49.964;7.890;2022-09-09T14:40:57;0.65;;;0.40;;
15295;SDS011;7749;49.964;7.890;2022-09-09T14:43:25;2.40;;;0.57;;
15295;SDS011;7749;49.964;7.890;2022-09-09T14:45:54;2.25;;;0.60;;
15295;SDS011;7749;49.964;7.890;2022-09-09T14:48:21;1.55;;;0.77;;
15295;SDS011;7749;49.964;7.890;2022-09-09T14:50:49;2.28;;;0.82;;
15295;SDS011;7749;49.964;7.890;2022-09-09T14:53:16;1.38;;;0.63;;
15295;SDS011;7749;49.964;7.890;2022-09-09T14:55:44;3.17;;;0.85;;
15295;SDS011;7749;49.964;7.890;2022-09-09T14:58:13;1.73;;;0.85;;
15295;SDS011;7749;49.964;7.890;2022-09-09T15:00:41;2.85;;;0.80;;
15295;SDS011;7749;49.964;7.890;2022-09-09T15:03:09;1.88;;;0.80;;
15295;SDS011;7749;49.964;7.890;2022-09-09T15:05:37;2.65;;;0.73;;
15295;SDS011;7749;49.964;7.890;2022-09-09T15:08:05;1.67;;;0.82;;
15295;SDS011;7749;49.964;7.890;2022-09-09T15:10:32;2.42;;;0.90;;
15295;SDS011;7749;49.964;7.890;2022-09-09T15:13:00;1.15;;;0.60;;
15295;SDS011;7749;49.964;7.890;2022-09-09T15:15:28;2.22;;;0.60;;
15295;SDS011;7749;49.964;7.890;2022-09-09T15:17:59;1.15;;;0.63;;
15295;SDS011;7749;49.964;7.890;2022-09-09T15:20:27;2.72;;;0.90;;
15295;SDS011;7749;49.964;7.890;2022-09-09T15:22:55;1.67;;;0.82;;
15295;SDS011;7749;49.964;7.890;2022-09-09T15:25:23;3.25;;;1.10;;
15295;SDS011;7749;49.964;7.890;2022-09-09T15:27:51;3.13;;;0.85;;
15295;SDS011;7749;49.964;7.890;2022-09-09T15:30:18;2.47;;;0.82;;
15295;SDS011;7749;49.964;7.890;2022-09-09T15:32:46;1.98;;;0.80;;
15295;SDS011;7749;49.964;7.890;2022-09-09T15:35:14;3.67;;;1.10;;
15295;SDS011;7749;49.964;7.890;2022-09-09T15:37:42;2.78;;;0.85;;
15295;SDS011;7749;49.964;7.890;2022-09-09T15:40:10;2.67;;;1.00;;
15295;SDS011;7749;49.964;7.890;2022-09-09T15:42:37;2.42;;;0.77;;
15295;SDS011;7749;49.964;7.890;2022-09-09T15:45:05;2.28;;;0.80;;
15295;SDS011;7749;49.964;7.890;2022-09-09T15:47:33;2.97;;;1.05;;
15295;SDS011;7749;49.964;7.890;2022-09-09T15:50:02;1.98;;;0.77;;
15295;SDS011;7749;49.964;7.890;2022-09-09T15:52:29;2.85;;;0.80;;
15295;SDS011;7749;49.964;7.890;2022-09-09T15:54:57;2.47;;;0.90;;
15295;SDS011;7749;49.964;7.890;2022-09-09T15:57:26;3.22;;;0.80;;
15295;SDS011;7749;49.964;7.890;2022-09-09T15:59:54;3.20;;;0.90;;
15295;SDS011;7749;49.964;7.890;2022-09-09T16:02:21;3.55;;;1.15;;
15295;SDS011;7749;49.964;7.890;2022-09-09T16:04:53;2.70;;;0.77;;
15295;SDS011;7749;49.964;7.890;2022-09-09T16:07:20;1.83;;;0.70;;
15295;SDS011;7749;49.964;7.890;2022-09-09T16:09:48;2.70;;;0.88;;
15295;SDS011;7749;49.964;7.890;2022-09-09T16:12:18;3.10;;;1.02;;
15295;SDS011;7749;49.964;7.890;2022-09-09T16:14:46;3.42;;;1.00;;
15295;SDS011;7749;49.964;7.890;2022-09-09T16:17:13;2.47;;;0.73;;
15295;SDS011;7749;49.964;7.890;2022-09-09T16:19:42;3.17;;;0.60;;
15295;SDS011;7749;49.964;7.890;2022-09-09T16:22:09;2.08;;;0.70;;
15295;SDS011;7749;49.964;7.890;2022-09-09T16:24:38;1.05;;;0.60;;
15295;SDS011;7749;49.964;7.890;2022-09-09T16:27:05;2.25;;;0.90;;
15295;SDS011;7749;49.964;7.890;2022-09-09T16:29:33;2.63;;;1.08;;
15295;SDS011;7749;49.964;7.890;2022-09-09T16:32:01;1.98;;;0.80;;
15295;SDS011;7749;49.964;7.890;2022-09-09T16:34:30;2.47;;;0.80;;
15295;SDS011;7749;49.964;7.890;2022-09-09T16:36:58;3.67;;;0.88;;
15295;SDS011;7749;49.964;7.890;2022-09-09T16:39:29;3.45;;;1.25;;
15295;SDS011;7749;49.964;7.890;2022-09-09T16:42:36;3.63;;;1.10;;
15295;SDS011;7749;49.964;7.890;2022-09-09T16:45:17;3.03;;;0.95;;
15295;SDS011;7749;49.964;7.890;2022-09-09T16:47:47;2.67;;;0.85;;
15295;SDS011;7749;49.964;7.890;2022-09-09T16:50:15;2.70;;;0.77;;
15295;SDS011;7749;49.964;7.890;2022-09-09T16:52:43;3.43;;;1.00;;
15295;SDS011;7749;49.964;7.890;2022-09-09T16:55:11;3.60;;;1.20;;
15295;SDS011;7749;49.964;7.890;2022-09-09T16:57:38;3.97;;;1.33;;
15295;SDS011;7749;49.964;7.890;2022-09-09T17:00:06;1.20;;;0.70;;
15295;SDS011;7749;49.964;7.890;2022-09-09T17:02:46;2.77;;;1.10;;
15295;SDS011;7749;49.964;7.890;2022-09-09T17:05:14;3.87;;;1.07;;
15295;SDS011;7749;49.964;7.890;2022-09-09T17:07:42;2.67;;;1.13;;
15295;SDS011;7749;49.964;7.890;2022-09-09T17:10:10;2.77;;;0.90;;
15295;SDS011;7749;49.964;7.890;2022-09-09T17:12:38;2.40;;;1.00;;
15295;SDS011;7749;49.964;7.890;2022-09-09T17:15:08;3.57;;;1.00;;
15295;SDS011;7749;49.964;7.890;2022-09-09T17:17:37;1.67;;;1.20;;
15295;SDS011;7749;49.964;7.890;2022-09-09T17:20:08;2.93;;;0.90;;
15295;SDS011;7749;49.964;7.890;2022-09-09T17:22:37;6.43;;;1.10;;
15295;SDS011;7749;49.964;7.890;2022-09-09T17:25:06;4.00;;;1.10;;
15295;SDS011;7749;49.964;7.890;2022-09-09T17:27:34;2.30;;;1.13;;
15295;SDS011;7749;49.964;7.890;2022-09-09T17:30:03;1.77;;;1.10;;
15295;SDS011;7749;49.964;7.890;2022-09-09T17:32:31;5.60;;;1.30;;
15295;SDS011;7749;49.964;7.890;2022-09-09T17:34:58;2.83;;;0.80;;
15295;SDS011;7749;49.964;7.890;2022-09-09T17:37:26;2.40;;;0.80;;
15295;SDS011;7749;49.964;7.890;2022-09-09T17:39:54;3.23;;;1.00;;
15295;SDS011;7749;49.964;7.890;2022-09-09T17:42:21;2.87;;;0.90;;
15295;SDS011;7749;49.964;7.890;2022-09-09T17:44:49;5.13;;;1.37;;
15295;SDS011;7749;49.964;7.890;2022-09-09T17:47:17;3.87;;;1.30;;
15295;SDS011;7749;49.964;7.890;2022-09-09T17:49:44;2.13;;;0.90;;
15295;SDS011;7749;49.964;7.890;2022-09-09T17:52:12;3.80;;;0.90;;
15295;SDS011;7749;49.964;7.890;2022-09-09T17:54:39;2.53;;;0.93;;
15295;SDS011;7749;49.964;7.890;2022-09-09T17:57:08;2.10;;;0.70;;
15295;SDS011;7749;49.964;7.890;2022-09-09T17:59:36;3.43;;;0.90;;
15295;SDS011;7749;49.964;7.890;2022-09-09T18:02:03;3.77;;;0.77;;
15295;SDS011;7749;49.964;7.890;2022-09-09T18:04:31;2.57;;;1.10;;
15295;SDS011;7749;49.964;7.890;2022-09-09T18:07:00;4.23;;;1.50;;
15295;SDS011;7749;49.964;7.890;2022-09-09T18:09:28;3.47;;;1.43;;
15295;SDS011;7749;49.964;7.890;2022-09-09T18:11:57;3.20;;;1.90;;
15295;SDS011;7749;49.964;7.890;2022-09-09T18:14:27;2.87;;;0.97;;
15295;SDS011;7749;49.964;7.890;2022-09-09T18:16:57;4.07;;;1.10;;
15295;SDS011;7749;49.964;7.890;2022-09-09T18:19:27;4.57;;;1.00;;
15295;SDS011;7749;49.964;7.890;2022-09-09T18:21:59;4.60;;;1.00;;
15295;SDS011;7749;49.964;7.890;2022-09-09T18:24:29;3.83;;;0.90;;
15295;SDS011;7749;49.964;7.890;2022-09-09T18:26:57;3.57;;;1.07;;
15295;SDS011;7749;49.964;7.890;2022-09-09T18:29:25;2.67;;;0.80;;
15295;SDS011;7749;49.964;7.890;2022-09-09T18:31:53;2.90;;;1.80;;
15295;SDS011;7749;49.964;7.890;2022-09-09T18:34:22;2.13;;;0.70;;
15295;SDS011;7749;49.964;7.890;2022-09-09T18:36:52;2.17;;;1.10;;
15295;SDS011;7749;49.964;7.890;2022-09-09T18:39:22;4.03;;;0.70;;
15295;SDS011;7749;49.964;7.890;2022-09-09T18:41:55;3.43;;;1.00;;
15295;SDS011;7749;49.964;7.890;2022-09-09T18:44:27;2.63;;;0.73;;
15295;SDS011;7749;49.964;7.890;2022-09-09T18:46:57;2.50;;;0.90;;
15295;SDS011;7749;49.964;7.890;2022-09-09T18:49:25;4.60;;;0.83;;
15295;SDS011;7749;49.964;7.890;2022-09-09T18:51:53;3.47;;;0.97;;
15295;SDS011;7749;49.964;7.890;2022-09-09T18:54:21;2.47;;;0.80;;
15295;SDS011;7749;49.964;7.890;2022-09-09T18:56:50;2.10;;;0.80;;